Time;durP1;ratioP1;P1;durP2;ratioP2;P2;SDS_P1;SDS_P2;PMS_P1;PMS_P2;Temp;Humidity;BMP_temperature;BMP_pressure;BME280_temperature;BME280_humidity;BME280_pressure;Samples;Min_cycle;Max_cycle;Signal;HPM_P1;HPM_P2
2023/04/24 08:05:42;;;;;;;13.40;6.60;;;;;;;7.49;100.00;100251.09;5068059;28;20910;-73
2023/04/24 08:08:08;;;;;;;18.10;8.10;;;;;;;7.51;100.00;100257.09;5069049;28;20469;-72
2023/04/24 08:10:33;;;;;;;22.10;7.82;;;;;;;7.54;100.00;100262.03;5067991;28;20059;-73
2023/04/24 08:12:58;;;;;;;22.67;7.13;;;;;;;7.56;100.00;100266.16;5059656;28;20376;-71
2023/04/24 08:15:24;;;;;;;21.15;8.57;;;;;;;7.61;100.00;100271.72;5049133;28;20029;-75
2023/04/24 08:17:50;;;;;;;25.52;9.18;;;;;;;7.63;100.00;100272.28;5049083;28;20483;-74
2023/04/24 08:20:15;;;;;;;21.98;8.50;;;;;;;7.65;100.00;100271.25;5048190;28;20087;-72
2023/04/24 08:22:42;;;;;;;25.25;8.35;;;;;;;7.75;100.00;100277.00;5068075;28;20029;-73
2023/04/24 08:25:09;;;;;;;24.30;8.70;;;;;;;7.74;100.00;100278.03;5042404;28;20105;-72
2023/04/24 08:27:36;;;;;;;20.60;7.65;;;;;;;7.78;100.00;100290.00;5029925;28;20049;-75
2023/04/24 08:30:02;;;;;;;25.45;9.32;;;;;;;7.80;100.00;100296.00;5029570;28;20096;-73
2023/04/24 08:32:28;;;;;;;24.15;8.90;;;;;;;7.79;100.00;100291.66;5029611;28;20037;-73
2023/04/24 08:34:56;;;;;;;18.42;7.18;;;;;;;7.79;100.00;100313.22;5029439;28;20033;-72
2023/04/24 08:37:25;;;;;;;21.63;6.80;;;;;;;7.84;100.00;100318.75;5028311;28;20032;-73
2023/04/24 08:39:51;;;;;;;21.65;7.20;;;;;;;7.88;100.00;100319.13;5040967;28;20041;-72
2023/04/24 08:42:18;;;;;;;24.50;7.03;;;;;;;7.90;100.00;100323.25;5049338;28;20587;-72
2023/04/24 08:44:44;;;;;;;22.23;6.88;;;;;;;7.89;100.00;100335.06;5044230;28;20088;-72
2023/04/24 08:47:10;;;;;;;23.05;6.63;;;;;;;7.98;100.00;100333.75;5029159;28;20029;-72
2023/04/24 08:49:37;;;;;;;18.20;6.20;;;;;;;7.99;100.00;100343.50;5028957;28;20030;-72
2023/04/24 08:52:02;;;;;;;17.83;6.32;;;;;;;8.07;100.00;100353.16;5028809;28;20022;-73
2023/04/24 08:54:29;;;;;;;19.75;6.03;;;;;;;8.12;100.00;100347.94;5038693;28;20502;-72
2023/04/24 08:57:01;;;;;;;23.92;5.88;;;;;;;8.18;100.00;100354.31;5047495;28;20037;-73
2023/04/24 08:59:28;;;;;;;21.35;6.10;;;;;;;8.14;100.00;100363.91;5047337;28;20021;-73
2023/04/24 09:01:54;;;;;;;16.77;5.40;;;;;;;8.17;100.00;100360.75;5044175;28;20119;-74
2023/04/24 09:04:21;;;;;;;19.08;5.60;;;;;;;8.14;100.00;100374.69;5048588;28;20057;-73
2023/04/24 09:06:55;;;;;;;19.83;5.10;;;;;;;8.03;100.00;100367.31;5047384;28;20032;-74
2023/04/24 09:09:22;;;;;;;21.67;5.13;;;;;;;7.96;100.00;100362.78;5046063;28;20111;-73
2023/04/24 09:11:49;;;;;;;15.85;4.70;;;;;;;7.92;100.00;100376.94;5048180;28;20383;-73
2023/04/24 09:14:15;;;;;;;19.80;4.78;;;;;;;7.91;100.00;100389.56;5047670;28;20461;-74
2023/04/24 09:16:41;;;;;;;12.60;3.60;;;;;;;7.90;100.00;100379.84;5037372;28;20096;-73
2023/04/24 09:19:06;;;;;;;18.45;5.10;;;;;;;7.92;100.00;100383.13;5033844;28;20454;-73
2023/04/24 09:21:35;;;;;;;17.58;4.47;;;;;;;7.96;100.00;100395.13;5035218;28;20487;-73
2023/04/24 09:24:03;;;;;;;16.40;4.18;;;;;;;8.01;100.00;100396.34;5044796;28;20522;-74
2023/04/24 09:26:34;;;;;;;16.13;4.50;;;;;;;8.05;100.00;100406.47;5053515;28;20444;-72
2023/04/24 09:29:00;;;;;;;15.48;4.20;;;;;;;8.07;100.00;100417.03;5052593;28;20135;-74
2023/04/24 09:31:28;;;;;;;11.48;3.67;;;;;;;8.11;100.00;100421.75;5055068;28;20028;-73
2023/04/24 09:33:59;;;;;;;14.45;4.68;;;;;;;8.05;100.00;100417.25;5037352;28;20378;-74
2023/04/24 09:36:40;;;;;;;18.35;4.57;;;;;;;8.04;100.00;100433.63;5014963;28;20105;-73
2023/04/24 09:39:15;;;;;;;14.38;4.20;;;;;;;7.92;100.00;100438.88;5029190;28;20034;-74
2023/04/24 09:41:58;;;;;;;14.88;4.47;;;;;;;7.87;100.00;100442.25;5015076;28;20085;-73
2023/04/24 09:44:32;;;;;;;9.07;3.28;;;;;;;7.86;100.00;100447.84;5013776;28;20088;-74
2023/04/24 09:47:10;;;;;;;11.05;3.60;;;;;;;7.85;100.00;100438.94;5013360;28;20033;-72
2023/04/24 09:49:49;;;;;;;11.70;2.92;;;;;;;7.90;100.00;100451.75;5013692;28;20079;-72
2023/04/24 09:52:24;;;;;;;11.90;3.00;;;;;;;7.91;100.00;100451.53;5014282;28;20389;-73
2023/04/24 09:55:01;;;;;;;13.13;3.35;;;;;;;7.92;100.00;100468.53;5013193;28;20026;-73
2023/04/24 09:57:35;;;;;;;10.43;2.88;;;;;;;8.05;100.00;100459.53;5013205;28;20040;-75
2023/04/24 10:00:09;;;;;;;11.80;3.20;;;;;;;8.09;100.00;100475.06;5012868;28;20030;-74
2023/04/24 10:02:37;;;;;;;8.38;2.97;;;;;;;8.21;100.00;100480.56;5011155;28;20057;-74
2023/04/24 10:05:05;;;;;;;7.40;2.75;;;;;;;8.33;100.00;100486.06;5012773;28;20486;-73
2023/04/24 10:07:36;;;;;;;13.90;3.63;;;;;;;8.43;100.00;100475.63;5029769;28;20045;-73
2023/04/24 10:10:17;;;;;;;13.35;4.40;;;;;;;8.48;100.00;100489.31;5025498;28;20469;-76
2023/04/24 10:12:46;;;;;;;11.55;3.80;;;;;;;8.53;100.00;100483.25;5031978;28;20472;-76
2023/04/24 10:15:12;;;;;;;8.88;3.30;;;;;;;8.51;100.00;100477.25;5032740;28;20029;-75
2023/04/24 10:17:38;;;;;;;14.20;3.60;;;;;;;8.51;100.00;100486.19;5034615;28;20049;-73
2023/04/24 10:20:06;;;;;;;8.38;2.70;;;;;;;8.52;100.00;100485.13;5032388;28;20110;-74
2023/04/24 10:22:32;;;;;;;7.10;2.58;;;;;;;8.46;100.00;100495.97;5032911;28;20030;-73
2023/04/24 10:24:59;;;;;;;8.85;2.88;;;;;;;8.49;100.00;100506.31;5027516;28;20026;-75
2023/04/24 10:27:26;;;;;;;6.57;2.60;;;;;;;8.38;100.00;100521.31;5051724;28;20091;-76
2023/04/24 10:29:56;;;;;;;4.78;2.15;;;;;;;8.36;100.00;100517.16;5053710;28;20135;-78
2023/04/24 10:32:21;;;;;;;10.50;2.45;;;;;;;8.28;100.00;100515.56;5053824;28;20036;-76
2023/04/24 10:34:48;;;;;;;4.97;1.70;;;;;;;8.21;100.00;100510.19;5038318;28;20021;-76
2023/04/24 10:37:15;;;;;;;5.65;1.70;;;;;;;8.22;100.00;100524.53;5032116;28;20037;-75
2023/04/24 10:39:40;;;;;;;6.00;2.58;;;;;;;8.19;100.00;100524.97;5033655;28;20044;-73
2023/04/24 10:42:15;;;;;;;6.00;1.60;;;;;;;8.23;100.00;100531.53;5033361;28;20021;-73
2023/04/24 10:44:41;;;;;;;5.82;1.92;;;;;;;8.30;100.00;100533.19;5027844;28;20026;-75
2023/04/24 10:47:13;;;;;;;7.82;1.80;;;;;;;8.39;100.00;100536.41;5014030;28;20045;-74
2023/04/24 10:49:40;;;;;;;;;;;;;;;8.46;100.00;100533.72;5028583;28;20105;-74
2023/04/24 10:52:06;;;;;;;6.28;1.58;;;;;;;8.41;100.00;100542.44;5053329;28;19926;-74
2023/04/24 10:54:40;;;;;;;8.20;2.50;;;;;;;8.46;100.00;100531.84;5053203;28;20112;-74
2023/04/24 10:57:20;;;;;;;7.05;2.00;;;;;;;8.54;100.00;100541.53;5052918;28;20079;-74
2023/04/24 10:59:47;;;;;;;7.97;2.00;;;;;;;8.56;100.00;100531.38;5053203;28;20033;-74
2023/04/24 11:02:16;;;;;;;3.67;1.70;;;;;;;8.55;100.00;100553.16;5035857;28;20077;-73
2023/04/24 11:04:43;;;;;;;5.10;1.73;;;;;;;8.61;100.00;100539.63;5038690;28;20086;-77
2023/04/24 11:07:20;;;;;;;4.90;1.70;;;;;;;8.63;100.00;100542.09;5033841;28;20034;-76
2023/04/24 11:09:58;;;;;;;4.68;1.60;;;;;;;8.62;100.00;100549.38;5014634;28;20041;-77
2023/04/24 11:12:26;;;;;;;8.10;1.70;;;;;;;8.57;100.00;100551.88;5034858;28;20039;-74
2023/04/24 11:14:59;;;;;;;4.80;1.50;;;;;;;8.56;100.00;100562.88;5031738;28;20432;-74
2023/04/24 11:17:33;;;;;;;6.72;1.90;;;;;;;8.53;100.00;100561.47;5027919;28;20033;-74
2023/04/24 11:23:41;;;;;;;7.53;1.20;;;;;;;8.51;100.00;100569.78;4961065;28;20079;-74
2023/04/24 11:26:12;;;;;;;6.85;1.63;;;;;;;8.44;100.00;100576.25;4989162;28;20038;-75
2023/04/24 11:28:51;;;;;;;6.03;1.90;;;;;;;8.39;100.00;100573.34;5018535;28;20037;-75
2023/04/24 11:31:39;;;;;;;4.70;1.73;;;;;;;8.40;100.00;100578.53;5013973;28;20026;-75
2023/04/24 11:34:13;;;;;;;5.30;1.50;;;;;;;8.39;100.00;100578.75;5013257;28;20022;-75
2023/04/24 11:36:40;;;;;;;5.00;1.67;;;;;;;8.39;100.00;100581.44;5036363;28;20033;-75
2023/04/24 11:39:06;;;;;;;6.65;1.90;;;;;;;8.44;100.00;100589.72;5039692;28;20470;-75
2023/04/24 11:41:33;;;;;;;4.43;1.60;;;;;;;8.51;100.00;100580.56;5026534;28;20036;-75
2023/04/24 11:43:59;;;;;;;5.60;1.70;;;;;;;8.55;100.00;100589.03;5032419;28;20033;-74
2023/04/24 11:46:29;;;;;;;6.65;2.40;;;;;;;8.64;100.00;100601.22;5031363;28;20091;-74
2023/04/24 11:48:56;;;;;;;5.68;1.73;;;;;;;8.56;100.00;100593.41;5032583;28;20032;-74
2023/04/24 11:51:23;;;;;;;3.80;1.50;;;;;;;8.66;100.00;100607.22;5030712;28;20064;-73
2023/04/24 11:53:49;;;;;;;4.38;1.58;;;;;;;8.73;100.00;100603.66;5030242;28;20148;-74
2023/04/24 11:56:19;;;;;;;6.97;1.55;;;;;;;8.74;100.00;100618.78;5030799;28;20125;-74
2023/04/24 11:58:44;;;;;;;3.88;1.70;;;;;;;8.71;100.00;100614.66;5031285;28;20080;-74
2023/04/24 12:01:10;;;;;;;6.85;1.77;;;;;;;8.69;100.00;100614.88;5027661;28;20026;-74
2023/04/24 12:03:35;;;;;;;4.93;1.40;;;;;;;8.73;100.00;100625.25;5041845;28;20033;-74
2023/04/24 12:06:10;;;;;;;4.32;1.35;;;;;;;8.78;100.00;100623.53;5051705;28;20035;-75
2023/04/24 12:08:36;;;;;;;5.85;1.73;;;;;;;8.82;100.00;100624.75;5010804;28;20052;-75
2023/04/24 12:11:09;;;;;;;5.10;1.73;;;;;;;8.84;100.00;100627.22;5011347;28;20034;-75
2023/04/24 12:13:35;;;;;;;4.72;1.42;;;;;;;8.88;100.00;100633.84;5012424;28;20116;-75
2023/04/24 12:16:04;;;;;;;3.38;1.83;;;;;;;8.93;100.00;100625.09;5012341;28;20405;-75
2023/04/24 12:18:30;;;;;;;4.45;1.40;;;;;;;8.96;100.00;100630.88;5038050;28;20036;-74
2023/04/24 12:21:14;;;;;;;7.70;1.80;;;;;;;9.03;100.00;100631.63;5050922;28;20029;-75
2023/04/24 12:23:43;;;;;;;6.25;1.60;;;;;;;9.03;100.00;100637.03;5051263;28;20380;-75
2023/04/24 12:26:08;;;;;;;4.30;1.50;;;;;;;9.05;100.00;100640.34;5039552;28;20034;-75
2023/04/24 12:28:38;;;;;;;4.38;1.70;;;;;;;9.11;100.00;100635.13;5031313;28;20041;-75
2023/04/24 12:31:04;;;;;;;3.08;1.30;;;;;;;9.09;100.00;100635.34;5046390;28;20132;-75
2023/04/24 12:33:34;;;;;;;5.82;1.50;;;;;;;9.14;100.00;100645.47;5051857;28;20534;-75
2023/04/24 12:36:00;;;;;;;3.83;1.40;;;;;;;9.10;100.00;100639.66;5052110;28;20032;-75
2023/04/24 12:38:27;;;;;;;7.35;1.33;;;;;;;9.13;100.00;100651.91;5050421;28;20056;-75
2023/04/24 12:41:04;;;;;;;4.15;1.50;;;;;;;9.23;100.00;100658.47;5034968;28;20030;-74
2023/04/24 12:43:33;;;;;;;2.15;1.30;;;;;;;9.42;100.00;100654.97;5011047;28;20069;-75
2023/04/24 12:45:59;;;;;;;5.18;1.50;;;;;;;9.54;100.00;100653.19;5028570;28;20079;-75
2023/04/24 12:48:31;;;;;;;3.22;1.33;;;;;;;9.64;100.00;100655.41;5031767;28;20029;-76
2023/04/24 12:51:03;;;;;;;3.83;1.30;;;;;;;9.76;100.00;100651.72;5042946;28;20045;-73
2023/04/24 12:53:31;;;;;;;5.40;1.58;;;;;;;9.74;99.43;100661.94;5054533;28;20029;-73
2023/04/24 12:55:57;;;;;;;4.63;1.30;;;;;;;9.86;100.00;100666.63;5053214;28;20033;-73
2023/04/24 12:58:22;;;;;;;6.88;1.55;;;;;;;10.07;100.00;100662.59;5034455;28;20427;-73
2023/04/24 13:00:47;;;;;;;4.10;1.25;;;;;;;10.20;100.00;100665.16;5038303;28;20541;-73
2023/04/24 13:03:13;;;;;;;4.97;1.65;;;;;;;10.05;100.00;100684.47;5055000;28;20028;-73
2023/04/24 13:05:38;;;;;;;6.90;1.98;;;;;;;9.91;100.00;100677.56;5053204;28;20045;-73
2023/04/24 13:08:04;;;;;;;6.45;1.55;;;;;;;9.69;100.00;100678.00;5054478;28;20029;-73
2023/04/24 13:10:29;;;;;;;5.70;1.77;;;;;;;9.62;100.00;100689.91;5039012;28;20120;-73
2023/04/24 13:12:55;;;;;;;4.72;1.50;;;;;;;9.50;100.00;100690.66;5034994;28;20033;-73
2023/04/24 13:15:20;;;;;;;11.43;2.88;;;;;;;9.43;100.00;100683.66;5037631;28;20029;-73
2023/04/24 13:17:45;;;;;;;3.10;1.30;;;;;;;9.39;100.00;100699.47;5038700;28;20096;-73
2023/04/24 13:20:11;;;;;;;4.35;1.52;;;;;;;9.38;100.00;100700.53;5013601;28;20131;-73
2023/04/24 13:22:37;;;;;;;4.63;1.98;;;;;;;9.27;100.00;100696.66;5013714;28;20062;-73
2023/04/24 13:25:02;;;;;;;4.28;1.77;;;;;;;9.10;100.00;100706.34;5014969;28;20034;-74
2023/04/24 13:27:28;;;;;;;6.13;1.88;;;;;;;9.03;100.00;100703.69;5014778;28;20108;-72
2023/04/24 13:29:53;;;;;;;6.38;2.72;;;;;;;8.86;100.00;100706.91;5015134;28;20405;-74
2023/04/24 13:32:18;;;;;;;2.70;1.70;;;;;;;8.75;100.00;100714.88;5033764;28;20033;-72
2023/04/24 13:34:53;;;;;;;4.00;1.85;;;;;;;8.71;100.00;100705.53;5054430;28;20032;-75
2023/04/24 13:37:18;;;;;;;5.28;2.20;;;;;;;8.74;100.00;100708.66;5042096;28;20044;-74
2023/04/24 13:39:43;;;;;;;6.20;1.85;;;;;;;8.78;100.00;100699.06;5022770;28;20041;-74
2023/04/24 13:42:09;;;;;;;9.18;1.58;;;;;;;8.93;100.00;100700.66;5014790;28;20088;-74
2023/04/24 13:44:34;;;;;;;5.72;1.95;;;;;;;8.96;100.00;100689.41;5015078;28;20363;-73
2023/04/24 13:47:03;;;;;;;6.45;1.90;;;;;;;9.05;100.00;100698.91;5024822;28;20028;-74
2023/04/24 13:49:28;;;;;;;5.75;2.03;;;;;;;9.09;100.00;100692.03;5054555;28;20025;-74
2023/04/24 13:51:55;;;;;;;4.80;1.95;;;;;;;9.14;100.00;100696.78;5047483;28;20604;-74
2023/04/24 13:54:20;;;;;;;5.82;2.08;;;;;;;9.17;100.00;100707.13;5014128;28;20072;-73
2023/04/24 13:56:46;;;;;;;6.72;2.15;;;;;;;9.16;100.00;100700.06;5015016;28;20112;-74
2023/04/24 13:59:13;;;;;;;4.45;2.13;;;;;;;9.11;100.00;100714.22;5014466;28;20026;-74
2023/04/24 14:01:47;;;;;;;6.00;2.28;;;;;;;9.05;100.00;100705.13;5015857;28;20037;-75
2023/04/24 14:04:12;;;;;;;3.20;1.75;;;;;;;9.10;100.00;100700.94;5052558;28;20424;-72
2023/04/24 14:06:38;;;;;;;6.28;2.30;;;;;;;9.10;100.00;100707.16;5054250;28;20033;-72
2023/04/24 14:09:06;;;;;;;9.52;2.72;;;;;;;8.98;100.00;100719.72;5054286;28;20056;-72
2023/04/24 14:11:32;;;;;;;6.57;2.08;;;;;;;8.97;100.00;100718.88;5048851;28;20033;-72
2023/04/24 14:13:57;;;;;;;4.40;1.92;;;;;;;8.85;100.00;100710.66;5014135;28;20040;-70
2023/04/24 14:16:22;;;;;;;5.25;2.17;;;;;;;8.82;100.00;100713.78;5015276;28;20136;-70
2023/04/24 14:18:48;;;;;;;4.13;1.88;;;;;;;8.80;100.00;100710.50;5050581;28;20032;-70
2023/04/24 14:21:13;;;;;;;4.80;1.77;;;;;;;8.76;100.00;100706.56;5053665;28;20061;-72
2023/04/24 14:23:39;;;;;;;8.23;2.10;;;;;;;8.76;100.00;100708.44;5053684;28;20107;-73
2023/04/24 14:26:04;;;;;;;6.97;2.17;;;;;;;8.76;100.00;100719.22;5036848;28;20488;-73
2023/04/24 14:28:30;;;;;;;4.43;1.85;;;;;;;8.79;100.00;100718.81;5048190;28;20029;-73
2023/04/24 14:30:55;;;;;;;4.22;1.77;;;;;;;8.83;100.00;100718.16;5046962;28;20063;-72
2023/04/24 14:33:21;;;;;;;5.28;1.90;;;;;;;8.81;100.00;100705.91;5052498;28;20033;-72
2023/04/24 14:35:47;;;;;;;7.18;1.80;;;;;;;8.86;100.00;100711.47;5053946;28;20061;-73
2023/04/24 14:38:13;;;;;;;7.40;1.70;;;;;;;8.99;100.00;100706.00;5053645;28;20033;-73
2023/04/24 14:40:38;;;;;;;6.53;1.85;;;;;;;9.14;100.00;100716.47;5053550;28;20029;-73
2023/04/24 14:43:03;;;;;;;6.30;2.15;;;;;;;9.33;100.00;100712.00;5047636;28;20044;-73
2023/04/24 14:45:29;;;;;;;6.00;1.88;;;;;;;9.43;100.00;100713.38;5052181;28;20025;-71
2023/04/24 14:47:55;;;;;;;4.53;1.83;;;;;;;9.27;100.00;100712.88;5041773;28;21404;-72
2023/04/24 14:50:20;;;;;;;6.13;2.00;;;;;;;9.39;100.00;100707.56;5018550;28;20041;-72
2023/04/24 14:52:46;;;;;;;4.13;1.60;;;;;;;9.60;96.26;100721.72;5038975;28;20047;-72
2023/04/24 14:55:12;;;;;;;5.82;1.70;;;;;;;9.75;94.03;100720.34;5044159;28;20029;-73
2023/04/24 14:57:37;;;;;;;5.88;1.73;;;;;;;10.16;88.13;100720.75;5032861;28;20034;-71
2023/04/24 15:00:06;;;;;;;5.90;2.20;;;;;;;10.68;81.64;100717.63;5033308;28;20037;-72
2023/04/24 15:02:32;;;;;;;7.45;2.00;;;;;;;11.49;80.79;100726.22;5030759;28;20488;-71
2023/04/24 15:04:58;;;;;;;5.28;1.75;;;;;;;12.00;70.03;100723.06;5031501;28;20057;-72
2023/04/24 15:07:24;;;;;;;6.15;2.03;;;;;;;12.32;68.76;100719.94;5030923;28;20045;-71
2023/04/24 15:09:49;;;;;;;4.38;2.00;;;;;;;12.68;68.09;100710.63;5052767;28;20040;-73
2023/04/24 15:12:15;;;;;;;7.55;2.33;;;;;;;12.72;63.88;100709.06;5038305;28;20021;-72
2023/04/24 15:14:40;;;;;;;4.78;1.70;;;;;;;12.85;64.55;100718.81;5026661;28;20067;-72
2023/04/24 15:17:05;;;;;;;6.00;2.05;;;;;;;13.05;62.07;100712.09;5033263;28;20460;-73
2023/04/24 15:19:31;;;;;;;6.88;2.10;;;;;;;13.07;62.43;100715.38;5022308;28;20378;-73
2023/04/24 15:21:56;;;;;;;4.90;1.90;;;;;;;13.36;62.62;100718.91;5015742;28;20520;-72
2023/04/24 15:24:21;;;;;;;6.22;2.10;;;;;;;13.64;60.11;100725.31;5042858;28;20460;-72
2023/04/24 15:26:47;;;;;;;6.97;2.20;;;;;;;13.83;60.47;100721.25;5052691;28;20029;-72
2023/04/24 15:29:12;;;;;;;8.82;2.40;;;;;;;13.86;58.97;100722.66;5035270;28;20476;-72
2023/04/24 15:31:39;;;;;;;5.75;2.90;;;;;;;13.58;57.32;100720.88;5026357;28;20037;-72
2023/04/24 15:34:05;;;;;;;5.25;2.22;;;;;;;13.36;58.81;100731.66;5018303;28;20083;-71
2023/04/24 15:36:32;;;;;;;9.02;2.25;;;;;;;12.89;63.58;100724.56;5017793;28;20503;-71
2023/04/24 15:38:57;;;;;;;8.75;2.42;;;;;;;12.22;69.74;100742.25;5032055;28;20029;-71
2023/04/24 15:41:23;;;;;;;9.55;2.50;;;;;;;11.64;74.23;100730.34;5030756;28;20139;-72
2023/04/24 15:43:48;;;;;;;6.93;2.42;;;;;;;11.33;79.71;100738.56;5032190;28;20025;-74
2023/04/24 15:46:14;;;;;;;8.73;2.80;;;;;;;11.37;79.34;100738.09;5031595;28;20113;-73
2023/04/24 15:48:41;;;;;;;9.88;3.35;;;;;;;10.94;81.84;100737.28;5037593;28;20040;-72
2023/04/24 15:51:07;;;;;;;7.18;2.60;;;;;;;10.95;83.89;100739.75;5032777;28;20034;-71
2023/04/24 15:53:32;;;;;;;9.88;3.40;;;;;;;11.30;80.85;100740.91;5032550;28;20044;-75
2023/04/24 15:55:58;;;;;;;9.43;2.85;;;;;;;11.43;75.92;100724.44;5031143;28;20025;-73
2023/04/24 15:58:24;;;;;;;8.93;2.90;;;;;;;11.56;76.14;100730.69;5041489;28;20127;-76
2023/04/24 16:00:49;;;;;;;7.40;2.63;;;;;;;11.20;78.07;100727.91;5029998;28;20480;-75
